Citadel — PBOK — position and weather

sailwx.info

Track history (hours):
 
Tides and Currents Weather Stations Pressure Air Temp Water Temp Dewpoint Dewpoint Depression Visibility Wind Speed Wind Dir Waves Ship Positions

Citadel

Last reported at 2014-Sep-17 04:13 UTC. Time now 2014-Sep-17 19:39 UTC.
Position N 46°10' W 001°36'.

Length 111 m; draft 4.2 m.

Type: Cargo ship. MMSI: 245977000.

Date/timePositionNaut miles runAvg speedWind from/ knotsBaromVisibWave heightAir tempDewpointWater temp
2014-Sep-17 04:13N 46°10' W 001°36'812.1
2014-Sep-17 03:33N 46°13' W 001°46'1212.0
2014-Sep-17 02:33N 46°19' W 002°01'1411.9
2014-Sep-17 01:23N 46°25' W 002°19'16612.0
2014-Sep-16 11:32N 47°42' W 005°56'1 1.4
2014-Sep-16 10:33N 47°42' W 005°54'1 1.1
2014-Sep-16 09:19N 47°43' W 005°53'0 0.4
2014-Sep-16 08:19N 47°44' W 005°53'  
2014-Sep-14 02:33N 47°31' W 005°12'2 1.5
2014-Sep-14 01:33N 47°30' W 005°10'7 1.0
2014-Sep-13 18:32N 47°37' W 005°06'5 1.2
2014-Sep-13 14:33N 47°32' W 005°09'3 1.6
2014-Sep-13 12:30N 47°30' W 005°05'1 1.6
2014-Sep-13 11:33N 47°30' W 005°03'2 1.5
2014-Sep-13 10:33N 47°30' W 005°01'2 1.5
2014-Sep-13 09:33N 47°31' W 004°59'1 1.4
2014-Sep-13 08:33N 47°32' W 004°58'1 1.2
2014-Sep-13 07:33N 47°34' W 004°58'9 8.9
2014-Sep-13 06:33N 47°42' W 004°59'1212.3
2014-Sep-13 05:33N 47°54' W 004°54'6 6.3
2014-Sep-13 04:33N 47°52' W 004°45'9 9.1
2014-Sep-13 03:33N 47°46' W 004°35'32 9.7
2014-Sep-13 00:13N 47°30' W 003°53'6 9.0
2014-Sep-12 23:33N 47°27' W 003°45'9 9.4
2014-Sep-12 22:32N 47°23' W 003°33'11 9.5
2014-Sep-12 21:22N 47°17' W 003°19'810.0
2014-Sep-12 20:34N 47°14' W 003°08'1110.3
2014-Sep-12 19:32N 47°11' W 002°53'  
2014-Sep-10 08:10N 47°52' W 004°45'813.1
2014-Sep-10 07:33N 47°57' W 004°56'261 9.7
2014-Sep-09 04:33N 50°33' E 000°25'1413.8
2014-Sep-09 03:34N 50°39' E 000°44'1313.3
2014-Sep-09 02:34N 50°46' E 001°02'1611.7
2014-Sep-09 01:12N 50°57' E 001°21'6 9.8
2014-Sep-09 00:33N 51°01' E 001°28'9 8.8
2014-Sep-08 23:33N 51°07' E 001°39'1010.3
2014-Sep-08 22:33N 51°02' E 001°53'10 9.8
2014-Sep-08 21:32N 51°03' E 002°09'8 7.8
2014-Sep-08 20:33N 51°03' E 002°21'1 0.5
2014-Sep-08 19:33N 51°03' E 002°21'0 0.0
2014-Sep-08 18:32N 51°03' E 002°21'0 0.0
2014-Sep-08 17:32N 51°03' E 002°21'0 0.0
2014-Sep-08 16:31N 51°03' E 002°21'0 0.0
2014-Sep-08 15:33N 51°03' E 002°21'0 0.0
2014-Sep-08 14:32N 51°03' E 002°21'0 0.0
2014-Sep-08 13:33N 51°03' E 002°21'0 0.0
2014-Sep-08 12:32N 51°03' E 002°21'0 0.0
2014-Sep-08 11:33N 51°03' E 002°21'0 0.0
2014-Sep-08 10:33N 51°03' E 002°21'0 0.0
2014-Sep-08 09:32N 51°03' E 002°21'0 0.0
2014-Sep-08 08:33N 51°03' E 002°21'0 0.0
2014-Sep-08 07:32N 51°03' E 002°21'0 0.0
2014-Sep-08 06:33N 51°03' E 002°21'0 0.0
2014-Sep-08 05:33N 51°03' E 002°21'0 0.0
2014-Sep-08 04:33N 51°03' E 002°21'0 0.0
2014-Sep-08 03:32N 51°03' E 002°21'0 0.0
2014-Sep-08 02:33N 51°03' E 002°21'0 0.0
2014-Sep-08 01:33N 51°03' E 002°21'0 0.0
2014-Sep-08 00:31N 51°03' E 002°21'0 0.0
2014-Sep-07 23:32N 51°03' E 002°21'0 0.0
2014-Sep-07 22:31N 51°03' E 002°21'0 0.0
2014-Sep-07 21:32N 51°03' E 002°21'0 0.0
2014-Sep-07 20:33N 51°03' E 002°21'0 0.0
2014-Sep-07 19:32N 51°03' E 002°21'0 0.0
2014-Sep-07 18:33N 51°03' E 002°21'0 0.0
2014-Sep-07 17:32N 51°03' E 002°21'0 0.0
2014-Sep-07 16:33N 51°03' E 002°21'0 0.0
2014-Sep-07 15:33N 51°03' E 002°21'0 0.0
2014-Sep-07 14:33N 51°03' E 002°21'0 0.0
2014-Sep-07 13:33N 51°03' E 002°21'0 0.0
2014-Sep-07 12:33N 51°03' E 002°21'0 0.0
2014-Sep-07 11:34N 51°03' E 002°21'0 0.0
2014-Sep-07 10:32N 51°03' E 002°21'0 0.0
2014-Sep-07 09:33N 51°03' E 002°21'0 0.0
2014-Sep-07 08:33N 51°03' E 002°21'0 0.0
2014-Sep-07 07:33N 51°03' E 002°21'0 0.0
2014-Sep-07 06:33N 51°03' E 002°21'0 0.0
2014-Sep-07 05:32N 51°03' E 002°21'0 0.0
2014-Sep-07 04:31N 51°03' E 002°21'  
Track history (hours):
 
Tides and Currents Weather Stations Pressure Air Temp Water Temp Dewpoint Dewpoint Depression Visibility Wind Speed Wind Dir Waves Ship Positions

Citadel

Last reported at 2014-Sep-17 04:13 UTC. Time now 2014-Sep-17 19:39 UTC.
Position N 46°10' W 001°36'.

Length 111 m; draft 4.2 m.

Type: Cargo ship. MMSI: 245977000.

Date/timePositionNaut miles runAvg speedWind from/ knotsBaromVisibWave heightAir tempDewpointWater temp
2014-Sep-17 04:13N 46°10' W 001°36'812.1
2014-Sep-17 03:33N 46°13' W 001°46'1212.0
2014-Sep-17 02:33N 46°19' W 002°01'1411.9
2014-Sep-17 01:23N 46°25' W 002°19'16612.0
2014-Sep-16 11:32N 47°42' W 005°56'1 1.4
2014-Sep-16 10:33N 47°42' W 005°54'1 1.1
2014-Sep-16 09:19N 47°43' W 005°53'0 0.4
2014-Sep-16 08:19N 47°44' W 005°53'  
2014-Sep-14 02:33N 47°31' W 005°12'2 1.5
2014-Sep-14 01:33N 47°30' W 005°10'7 1.0
2014-Sep-13 18:32N 47°37' W 005°06'5 1.2
2014-Sep-13 14:33N 47°32' W 005°09'3 1.6
2014-Sep-13 12:30N 47°30' W 005°05'1 1.6
2014-Sep-13 11:33N 47°30' W 005°03'2 1.5
2014-Sep-13 10:33N 47°30' W 005°01'2 1.5
2014-Sep-13 09:33N 47°31' W 004°59'1 1.4
2014-Sep-13 08:33N 47°32' W 004°58'1 1.2
2014-Sep-13 07:33N 47°34' W 004°58'9 8.9
2014-Sep-13 06:33N 47°42' W 004°59'1212.3
2014-Sep-13 05:33N 47°54' W 004°54'6 6.3
2014-Sep-13 04:33N 47°52' W 004°45'9 9.1
2014-Sep-13 03:33N 47°46' W 004°35'32 9.7
2014-Sep-13 00:13N 47°30' W 003°53'6 9.0
2014-Sep-12 23:33N 47°27' W 003°45'9 9.4
2014-Sep-12 22:32N 47°23' W 003°33'11 9.5
2014-Sep-12 21:22N 47°17' W 003°19'810.0
2014-Sep-12 20:34N 47°14' W 003°08'1110.3
2014-Sep-12 19:32N 47°11' W 002°53'  
2014-Sep-10 08:10N 47°52' W 004°45'813.1
2014-Sep-10 07:33N 47°57' W 004°56'261 9.7
2014-Sep-09 04:33N 50°33' E 000°25'1413.8
2014-Sep-09 03:34N 50°39' E 000°44'1313.3
2014-Sep-09 02:34N 50°46' E 001°02'1611.7
2014-Sep-09 01:12N 50°57' E 001°21'6 9.8
2014-Sep-09 00:33N 51°01' E 001°28'9 8.8
2014-Sep-08 23:33N 51°07' E 001°39'1010.3
2014-Sep-08 22:33N 51°02' E 001°53'10 9.8
2014-Sep-08 21:32N 51°03' E 002°09'8 7.8
2014-Sep-08 20:33N 51°03' E 002°21'1 0.5
2014-Sep-08 19:33N 51°03' E 002°21'0 0.0
2014-Sep-08 18:32N 51°03' E 002°21'0 0.0
2014-Sep-08 17:32N 51°03' E 002°21'0 0.0
2014-Sep-08 16:31N 51°03' E 002°21'0 0.0
2014-Sep-08 15:33N 51°03' E 002°21'0 0.0
2014-Sep-08 14:32N 51°03' E 002°21'0 0.0
2014-Sep-08 13:33N 51°03' E 002°21'0 0.0
2014-Sep-08 12:32N 51°03' E 002°21'0 0.0
2014-Sep-08 11:33N 51°03' E 002°21'0 0.0
2014-Sep-08 10:33N 51°03' E 002°21'0 0.0
2014-Sep-08 09:32N 51°03' E 002°21'0 0.0
2014-Sep-08 08:33N 51°03' E 002°21'0 0.0
2014-Sep-08 07:32N 51°03' E 002°21'0 0.0
2014-Sep-08 06:33N 51°03' E 002°21'0 0.0
2014-Sep-08 05:33N 51°03' E 002°21'0 0.0
2014-Sep-08 04:33N 51°03' E 002°21'0 0.0
2014-Sep-08 03:32N 51°03' E 002°21'0 0.0
2014-Sep-08 02:33N 51°03' E 002°21'0 0.0
2014-Sep-08 01:33N 51°03' E 002°21'0 0.0
2014-Sep-08 00:31N 51°03' E 002°21'0 0.0
2014-Sep-07 23:32N 51°03' E 002°21'0 0.0
2014-Sep-07 22:31N 51°03' E 002°21'0 0.0
2014-Sep-07 21:32N 51°03' E 002°21'0 0.0
2014-Sep-07 20:33N 51°03' E 002°21'0 0.0
2014-Sep-07 19:32N 51°03' E 002°21'0 0.0
2014-Sep-07 18:33N 51°03' E 002°21'0 0.0
2014-Sep-07 17:32N 51°03' E 002°21'0 0.0
2014-Sep-07 16:33N 51°03' E 002°21'0 0.0
2014-Sep-07 15:33N 51°03' E 002°21'0 0.0
2014-Sep-07 14:33N 51°03' E 002°21'0 0.0
2014-Sep-07 13:33N 51°03' E 002°21'0 0.0
2014-Sep-07 12:33N 51°03' E 002°21'0 0.0
2014-Sep-07 11:34N 51°03' E 002°21'0 0.0
2014-Sep-07 10:32N 51°03' E 002°21'0 0.0
2014-Sep-07 09:33N 51°03' E 002°21'0 0.0
2014-Sep-07 08:33N 51°03' E 002°21'0 0.0
2014-Sep-07 07:33N 51°03' E 002°21'0 0.0
2014-Sep-07 06:33N 51°03' E 002°21'0 0.0
2014-Sep-07 05:32N 51°03' E 002°21'0 0.0
2014-Sep-07 04:31N 51°03' E 002°21'  

Dump ship's entire track history